createdAt,value
2018-12-21T00:01:07.145Z,11.30
2018-12-21T00:03:34.759Z,10.13
2018-12-21T00:06:02.514Z,10.17
2018-12-21T00:08:30.520Z,11.17
2018-12-21T00:10:58.136Z,11.00
2018-12-21T00:13:25.843Z,12.43
2018-12-21T00:15:53.419Z,12.40
2018-12-21T00:18:20.984Z,11.53
2018-12-21T00:20:50.323Z,11.13
2018-12-21T00:23:17.941Z,12.17
2018-12-21T00:25:45.576Z,11.80
2018-12-21T00:28:13.162Z,11.70
2018-12-21T00:30:39.989Z,10.70
2018-12-21T00:33:12.707Z,11.40
2018-12-21T00:35:45.810Z,12.17
2018-12-21T00:38:19.185Z,11.30
2018-12-21T00:40:52.274Z,10.83
2018-12-21T00:43:30.842Z,11.73
2018-12-21T00:46:08.156Z,12.50
2018-12-21T00:48:35.939Z,12.40
2018-12-21T00:51:03.660Z,13.90
2018-12-21T00:53:31.318Z,12.57
2018-12-21T00:56:00.284Z,11.40
2018-12-21T00:58:27.861Z,12.20
2018-12-21T01:00:55.376Z,12.23
2018-12-21T01:03:23.644Z,11.77
2018-12-21T01:05:53.631Z,11.43
2018-12-21T01:08:21.358Z,11.27
2018-12-21T01:10:49.020Z,10.03
2018-12-21T01:13:16.647Z,11.13
2018-12-21T01:15:45.752Z,10.33
2018-12-21T01:18:13.353Z,13.27
2018-12-21T01:20:40.848Z,10.33
2018-12-21T01:23:08.406Z,12.47
2018-12-21T01:25:35.908Z,11.00
2018-12-21T01:28:03.471Z,12.00
2018-12-21T01:30:31.660Z,10.90
2018-12-21T01:32:59.314Z,10.70
2018-12-21T01:35:26.779Z,10.43
2018-12-21T01:37:54.561Z,11.83
2018-12-21T01:40:22.093Z,13.20
2018-12-21T01:42:49.656Z,14.33
2018-12-21T01:45:17.835Z,13.27
2018-12-21T01:47:45.837Z,11.57
2018-12-21T01:50:14.549Z,13.53
2018-12-21T01:52:42.390Z,10.23
2018-12-21T01:55:10.199Z,12.20
2018-12-21T01:57:37.919Z,13.83
2018-12-21T02:00:06.232Z,10.80
2018-12-21T02:02:34.151Z,10.57
2018-12-21T02:05:01.759Z,10.80
2018-12-21T02:07:29.838Z,12.53
2018-12-21T02:09:57.396Z,11.53
2018-12-21T02:12:25.086Z,9.93
2018-12-21T02:14:52.625Z,9.53
2018-12-21T02:17:20.076Z,11.13
2018-12-21T02:19:47.511Z,13.60
2018-12-21T02:22:14.967Z,12.63
2018-12-21T02:24:42.515Z,12.33
2018-12-21T02:27:10.478Z,12.63
2018-12-21T02:29:37.916Z,12.93
2018-12-21T02:32:05.472Z,12.20
2018-12-21T02:34:33.308Z,10.50
2018-12-21T02:37:00.873Z,11.30
2018-12-21T02:39:28.493Z,12.30
2018-12-21T02:41:56.375Z,11.93
2018-12-21T02:44:25.064Z,11.17
2018-12-21T02:46:53.086Z,10.33
2018-12-21T02:49:20.714Z,11.27
2018-12-21T02:51:48.337Z,10.97
2018-12-21T02:54:15.868Z,10.60
2018-12-21T02:56:43.292Z,11.37
2018-12-21T02:59:11.003Z,9.47
2018-12-21T03:01:38.562Z,10.13
2018-12-21T03:04:06.116Z,10.33
2018-12-21T03:06:33.710Z,8.67
2018-12-21T03:09:01.204Z,11.27
2018-12-21T03:11:28.808Z,10.23
2018-12-21T03:13:56.531Z,9.23
2018-12-21T03:16:24.013Z,9.63
2018-12-21T03:18:51.509Z,9.27
2018-12-21T03:21:19.100Z,11.43
2018-12-21T03:23:50.229Z,9.77
2018-12-21T03:26:17.935Z,11.00
2018-12-21T03:28:46.375Z,10.30
2018-12-21T03:31:14.069Z,9.27
2018-12-21T03:33:42.685Z,9.67
2018-12-21T03:36:19.935Z,8.53
2018-12-21T03:38:49.270Z,9.83
2018-12-21T03:41:17.277Z,11.17
2018-12-21T03:43:45.052Z,8.93
2018-12-21T03:46:12.653Z,7.57
2018-12-21T03:48:40.503Z,9.93
2018-12-21T03:51:08.097Z,9.27
2018-12-21T03:53:35.878Z,11.33
2018-12-21T03:56:03.795Z,9.93
2018-12-21T03:58:31.458Z,11.30
2018-12-21T04:00:59.143Z,10.47
2018-12-21T04:03:26.808Z,10.70
2018-12-21T04:05:54.437Z,9.73
2018-12-21T04:08:23.095Z,10.77
2018-12-21T04:10:50.922Z,10.00
2018-12-21T04:13:18.843Z,10.13
2018-12-21T04:15:46.378Z,10.80
2018-12-21T04:18:19.999Z,9.77
2018-12-21T04:20:47.551Z,12.87
2018-12-21T04:23:15.327Z,9.10
2018-12-21T04:25:43.730Z,11.90
2018-12-21T04:28:11.192Z,8.70
2018-12-21T04:30:40.191Z,9.33
2018-12-21T04:33:07.898Z,8.13
2018-12-21T04:35:35.693Z,10.30
2018-12-21T04:38:03.383Z,10.93
2018-12-21T04:40:31.674Z,9.80
2018-12-21T04:42:59.240Z,9.00
2018-12-21T04:45:26.676Z,9.03
2018-12-21T04:47:54.471Z,7.53
2018-12-21T04:50:22.109Z,8.47
2018-12-21T04:52:49.737Z,8.43
2018-12-21T04:55:17.645Z,8.67
2018-12-21T04:57:45.185Z,8.23
2018-12-21T05:00:25.495Z,9.57
2018-12-21T05:02:53.215Z,8.93
2018-12-21T05:05:20.975Z,9.20
2018-12-21T05:07:53.829Z,10.70
2018-12-21T05:10:21.342Z,9.43
2018-12-21T05:12:49.221Z,10.47
2018-12-21T05:15:16.812Z,8.57
2018-12-21T05:17:44.294Z,9.07
2018-12-21T05:20:12.979Z,8.10
2018-12-21T05:22:42.588Z,11.07
2018-12-21T05:25:32.045Z,9.63
2018-12-21T05:27:59.704Z,9.73
2018-12-21T05:30:28.112Z,11.10
2018-12-21T05:32:55.784Z,10.10
2018-12-21T05:35:23.511Z,8.53
2018-12-21T05:37:51.078Z,8.80
2018-12-21T05:40:18.881Z,9.17
2018-12-21T05:42:46.745Z,9.13
2018-12-21T05:45:14.548Z,8.43
2018-12-21T05:47:42.131Z,7.63
2018-12-21T05:50:09.770Z,7.97
2018-12-21T05:52:37.749Z,7.83
2018-12-21T05:55:05.661Z,8.33
2018-12-21T05:57:35.652Z,9.63
2018-12-21T06:00:03.333Z,8.80
2018-12-21T06:02:31.053Z,8.10
2018-12-21T06:05:02.742Z,8.77
2018-12-21T06:07:31.110Z,8.17
2018-12-21T06:09:59.085Z,7.57
2018-12-21T06:12:26.970Z,8.67
2018-12-21T06:14:54.933Z,8.27
2018-12-21T06:17:22.570Z,8.83
2018-12-21T06:19:50.587Z,8.77
2018-12-21T06:22:18.340Z,7.50
2018-12-21T06:24:46.085Z,7.63
2018-12-21T06:27:13.723Z,7.43
2018-12-21T06:29:41.416Z,7.97
2018-12-21T06:32:10.046Z,7.40
2018-12-21T06:34:37.746Z,7.83
2018-12-21T06:37:07.252Z,8.33
2018-12-21T06:39:34.913Z,7.87
2018-12-21T06:42:02.674Z,7.40
2018-12-21T06:44:30.519Z,8.93
2018-12-21T06:46:58.329Z,9.90
2018-12-21T06:49:25.908Z,9.53
2018-12-21T06:51:53.441Z,7.30
2018-12-21T06:54:21.549Z,7.33
2018-12-21T06:56:49.580Z,8.57
2018-12-21T06:59:17.213Z,8.17
2018-12-21T07:01:44.675Z,8.90
2018-12-21T07:04:12.928Z,8.17
2018-12-21T07:06:40.864Z,7.37
2018-12-21T07:09:08.450Z,7.63
2018-12-21T07:11:36.357Z,6.40
2018-12-21T07:14:03.906Z,7.33
2018-12-21T07:16:31.396Z,5.80
2018-12-21T07:18:58.892Z,7.43
2018-12-21T07:21:26.398Z,6.13
2018-12-21T07:23:53.831Z,7.80
2018-12-21T07:26:21.807Z,6.33
2018-12-21T07:28:49.807Z,7.47
2018-12-21T07:31:18.126Z,6.97
2018-12-21T07:33:45.885Z,7.40
2018-12-21T07:36:13.404Z,7.87
2018-12-21T07:38:40.958Z,7.40
2018-12-21T07:41:08.469Z,6.53
2018-12-21T07:43:36.033Z,6.63
2018-12-21T07:46:03.552Z,7.37
2018-12-21T07:48:31.501Z,8.70
2018-12-21T07:50:59.264Z,6.83
2018-12-21T07:53:26.724Z,6.43
2018-12-21T07:55:54.198Z,6.03
2018-12-21T07:58:21.612Z,5.27
2018-12-21T08:00:49.135Z,6.27
2018-12-21T08:03:16.703Z,5.27
2018-12-21T08:05:44.150Z,5.57
2018-12-21T08:08:11.607Z,5.93
2018-12-21T08:10:39.095Z,5.47
2018-12-21T08:13:07.295Z,4.83
2018-12-21T08:15:34.989Z,8.23
2018-12-21T08:18:02.777Z,7.33
2018-12-21T08:20:30.404Z,6.20
2018-12-21T08:22:58.868Z,6.07
2018-12-21T08:25:46.956Z,5.37
2018-12-21T08:28:30.734Z,6.30
2018-12-21T08:33:43.098Z,6.50
2018-12-21T08:36:15.435Z,7.23
2018-12-21T08:39:24.375Z,5.70
2018-12-21T08:41:52.800Z,6.30
2018-12-21T08:45:35.945Z,6.60
2018-12-21T08:48:03.661Z,7.70
2018-12-21T08:50:36.334Z,6.57
2018-12-21T08:53:05.769Z,4.87
2018-12-21T08:55:33.547Z,6.37
2018-12-21T08:58:01.041Z,9.00
2018-12-21T09:00:29.070Z,6.37
2018-12-21T09:02:56.819Z,6.03
2018-12-21T09:05:27.446Z,6.93
2018-12-21T09:07:55.207Z,6.37
2018-12-21T09:10:23.703Z,6.43
2018-12-21T09:12:51.722Z,6.83
2018-12-21T09:15:20.010Z,7.90
2018-12-21T09:17:47.541Z,6.77
2018-12-21T09:20:15.367Z,6.13
2018-12-21T09:22:44.157Z,7.47
2018-12-21T09:25:11.814Z,7.40
2018-12-21T09:27:39.672Z,6.07
2018-12-21T09:30:09.840Z,6.43
2018-12-21T09:32:37.460Z,6.07
2018-12-21T09:35:05.136Z,7.87
2018-12-21T09:37:33.052Z,6.87
2018-12-21T09:40:01.201Z,6.47
2018-12-21T09:42:29.067Z,5.57
2018-12-21T09:44:56.829Z,7.13
2018-12-21T09:47:24.525Z,6.53
2018-12-21T09:49:52.417Z,7.47
2018-12-21T09:52:20.097Z,6.97
2018-12-21T09:54:47.802Z,8.07
2018-12-21T09:57:15.638Z,6.53
2018-12-21T09:59:43.446Z,6.13
2018-12-21T10:02:11.147Z,7.40
2018-12-21T10:04:38.947Z,6.75
2018-12-21T10:07:06.756Z,6.57
2018-12-21T10:09:35.010Z,7.13
2018-12-21T10:12:03.804Z,7.30
2018-12-21T10:14:31.492Z,7.40
2018-12-21T10:16:59.754Z,7.70
2018-12-21T10:19:28.011Z,7.33
2018-12-21T10:21:56.643Z,7.33
2018-12-21T10:24:24.565Z,7.57
2018-12-21T10:26:52.301Z,7.60
2018-12-21T10:29:19.836Z,6.73
2018-12-21T10:31:47.518Z,8.53
2018-12-21T10:34:15.388Z,5.83
2018-12-21T10:36:43.102Z,6.07
2018-12-21T10:39:10.860Z,6.17
2018-12-21T10:41:38.422Z,6.37
2018-12-21T10:44:06.146Z,6.77
2018-12-21T10:46:33.918Z,7.03
2018-12-21T10:49:01.655Z,6.33
2018-12-21T10:51:29.470Z,9.70
2018-12-21T10:53:57.179Z,5.70
2018-12-21T10:56:24.922Z,7.00
2018-12-21T10:58:52.514Z,6.90
2018-12-21T11:01:20.214Z,5.70
2018-12-21T11:03:47.918Z,6.43
2018-12-21T11:06:15.649Z,4.40
2018-12-21T11:08:43.284Z,5.80
2018-12-21T11:11:10.950Z,6.57
2018-12-21T11:13:38.680Z,8.10
2018-12-21T11:16:06.271Z,5.67
2018-12-21T11:18:33.801Z,5.20
2018-12-21T11:21:01.364Z,4.73
2018-12-21T11:23:28.922Z,5.33
2018-12-21T11:25:56.490Z,6.10
2018-12-21T11:28:25.526Z,4.90
2018-12-21T11:31:00.327Z,3.83
2018-12-21T11:33:27.942Z,5.10
2018-12-21T11:35:55.891Z,4.00
2018-12-21T11:38:23.359Z,4.67
2018-12-21T11:40:51.583Z,5.17
2018-12-21T11:43:19.613Z,4.60
2018-12-21T11:45:48.007Z,4.10
2018-12-21T11:48:16.811Z,5.10
2018-12-21T11:50:50.302Z,4.37
2018-12-21T11:53:36.633Z,4.10
2018-12-21T11:56:06.828Z,4.17
2018-12-21T11:58:41.676Z,4.03
2018-12-21T12:01:09.441Z,3.60
2018-12-21T12:03:38.489Z,3.23
2018-12-21T12:06:06.819Z,4.27
2018-12-21T12:08:34.885Z,3.93
2018-12-21T12:11:02.757Z,4.10
2018-12-21T12:13:32.318Z,3.50
2018-12-21T12:16:00.182Z,3.60
2018-12-21T12:18:30.515Z,4.27
2018-12-21T12:21:00.063Z,4.80
2018-12-21T12:23:28.126Z,3.30
2018-12-21T12:25:57.394Z,3.97
2018-12-21T12:28:25.578Z,4.03
2018-12-21T12:30:53.649Z,4.00
2018-12-21T12:33:21.740Z,3.30
2018-12-21T12:35:52.614Z,2.33
2018-12-21T12:38:22.340Z,2.83
2018-12-21T12:41:06.612Z,2.60
2018-12-21T12:43:37.820Z,3.27
2018-12-21T12:46:11.839Z,2.20
2018-12-21T12:48:41.087Z,2.60
2018-12-21T12:51:13.261Z,2.53
2018-12-21T12:53:44.905Z,2.43
2018-12-21T12:56:23.553Z,2.47
2018-12-21T12:59:02.210Z,2.40
2018-12-21T13:01:31.948Z,1.83
2018-12-21T13:04:04.181Z,1.90
2018-12-21T13:06:40.717Z,2.40
2018-12-21T13:09:10.111Z,2.50
2018-12-21T13:11:40.241Z,1.90
2018-12-21T13:14:09.846Z,1.83
2018-12-21T13:16:44.115Z,1.70
2018-12-21T13:19:15.161Z,1.67
2018-12-21T13:21:44.444Z,1.60
2018-12-21T13:24:23.740Z,1.97
2018-12-21T13:26:51.748Z,1.50
2018-12-21T13:29:19.633Z,2.17
2018-12-21T13:31:48.966Z,1.80
2018-12-21T13:34:17.341Z,2.47
2018-12-21T13:36:45.430Z,1.37
2018-12-21T13:39:13.401Z,2.63
2018-12-21T13:41:43.116Z,1.83
2018-12-21T13:44:11.101Z,2.03
2018-12-21T13:46:39.373Z,1.80
2018-12-21T13:49:08.153Z,2.00
2018-12-21T13:51:37.379Z,1.97
2018-12-21T13:54:06.630Z,2.10
2018-12-21T13:56:35.068Z,1.80
2018-12-21T13:59:03.153Z,1.73
2018-12-21T14:01:32.128Z,2.23
2018-12-21T14:04:01.095Z,1.83
2018-12-21T14:06:29.300Z,2.00
2018-12-21T14:08:57.372Z,1.70
2018-12-21T14:11:25.371Z,2.00
2018-12-21T14:13:56.106Z,2.43
2018-12-21T14:16:23.934Z,2.83
2018-12-21T14:18:51.688Z,2.00
2018-12-21T14:21:19.599Z,1.77
2018-12-21T14:23:47.532Z,1.70
2018-12-21T14:26:15.143Z,1.73
2018-12-21T14:28:43.101Z,1.93
2018-12-21T14:31:10.836Z,2.03
2018-12-21T14:33:39.751Z,2.00
2018-12-21T14:36:12.437Z,2.17
2018-12-21T14:38:41.584Z,2.00
2018-12-21T14:41:09.388Z,2.13
2018-12-21T14:43:37.709Z,2.10
2018-12-21T14:46:05.637Z,1.80
2018-12-21T14:48:33.332Z,1.93
2018-12-21T14:51:00.999Z,2.07
2018-12-21T14:53:28.880Z,2.10
2018-12-21T14:55:56.747Z,2.17
2018-12-21T14:58:24.739Z,1.83
2018-12-21T15:00:52.795Z,2.30
2018-12-21T15:03:21.028Z,1.97
2018-12-21T15:05:49.018Z,2.03
2018-12-21T15:08:16.909Z,1.97
2018-12-21T15:10:46.004Z,1.97
2018-12-21T15:13:16.838Z,1.97
2018-12-21T15:15:44.861Z,1.90
2018-12-21T15:18:14.260Z,2.20
2018-12-21T15:20:43.523Z,2.33
2018-12-21T15:23:14.646Z,2.40
2018-12-21T15:25:46.174Z,2.30
2018-12-21T15:28:14.695Z,2.37
2018-12-21T15:30:42.889Z,2.50
2018-12-21T15:33:12.184Z,2.30
2018-12-21T15:35:42.186Z,2.10
2018-12-21T15:38:11.323Z,2.10
2018-12-21T15:40:40.489Z,2.50
2018-12-21T15:43:09.512Z,2.73
2018-12-21T15:45:39.314Z,2.00
2018-12-21T15:48:08.401Z,2.53
2018-12-21T15:50:37.783Z,2.30
2018-12-21T15:53:07.697Z,2.30
2018-12-21T15:55:38.130Z,2.33
2018-12-21T15:58:06.062Z,2.87
2018-12-21T16:00:34.121Z,2.87
2018-12-21T16:03:03.774Z,3.00
2018-12-21T16:05:31.987Z,2.40
2018-12-21T16:08:00.737Z,2.70
2018-12-21T16:10:28.769Z,2.50
2018-12-21T16:12:56.839Z,2.50
2018-12-21T16:15:24.813Z,3.80
2018-12-21T16:17:52.716Z,2.43
2018-12-21T16:20:21.103Z,3.17
2018-12-21T16:22:50.117Z,2.80
2018-12-21T16:25:18.183Z,3.40
2018-12-21T16:27:46.495Z,2.80
2018-12-21T16:30:14.656Z,3.67
2018-12-21T16:32:43.846Z,3.20
2018-12-21T16:35:13.821Z,3.33
2018-12-21T16:37:43.819Z,2.90
2018-12-21T16:40:11.942Z,2.80
2018-12-21T16:42:39.951Z,2.67
2018-12-21T16:45:10.271Z,2.80
2018-12-21T16:47:38.557Z,2.60
2018-12-21T16:50:08.652Z,2.90
2018-12-21T16:52:37.748Z,2.83
2018-12-21T16:55:06.382Z,2.37
2018-12-21T16:57:35.819Z,3.23
2018-12-21T17:00:05.430Z,2.60
2018-12-21T17:02:33.801Z,3.33
2018-12-21T17:05:02.189Z,2.60
2018-12-21T17:07:31.483Z,2.60
2018-12-21T17:10:02.603Z,2.83
2018-12-21T17:12:36.022Z,3.07
2018-12-21T17:15:05.141Z,2.70
2018-12-21T17:17:33.121Z,3.53
2018-12-21T17:20:04.600Z,2.53
2018-12-21T17:22:36.390Z,2.90
2018-12-21T17:25:04.638Z,3.20
2018-12-21T17:27:33.482Z,3.10
2018-12-21T17:30:04.528Z,3.80
2018-12-21T17:32:34.252Z,2.90
2018-12-21T17:35:03.329Z,3.93
2018-12-21T17:37:32.002Z,3.20
2018-12-21T17:40:06.841Z,3.30
2018-12-21T17:42:35.956Z,3.47
2018-12-21T17:45:04.687Z,5.13
2018-12-21T17:47:44.325Z,5.00
2018-12-21T17:50:13.085Z,4.83
2018-12-21T17:52:45.550Z,4.97
2018-12-21T17:55:15.322Z,3.53
2018-12-21T17:57:45.046Z,3.67
2018-12-21T18:00:17.309Z,4.63
2018-12-21T18:02:48.489Z,4.07
2018-12-21T18:05:17.931Z,4.17
2018-12-21T18:07:47.099Z,4.90
2018-12-21T18:10:16.647Z,4.07
2018-12-21T18:12:45.442Z,3.37
2018-12-21T18:15:13.781Z,3.10
2018-12-21T18:17:45.494Z,3.63
2018-12-21T18:20:17.052Z,3.93
2018-12-21T18:22:47.746Z,4.90
2018-12-21T18:25:25.790Z,3.03
2018-12-21T18:27:55.582Z,4.43
2018-12-21T18:30:30.456Z,3.63
2018-12-21T18:33:10.444Z,3.50
2018-12-21T18:35:36.076Z,3.67
2018-12-21T18:38:05.446Z,3.70
2018-12-21T18:40:35.762Z,5.37
2018-12-21T18:43:06.034Z,3.47
2018-12-21T18:45:35.490Z,3.40
2018-12-21T18:48:04.493Z,3.93
2018-12-21T18:50:35.316Z,4.57
2018-12-21T18:53:04.508Z,4.20
2018-12-21T18:55:32.523Z,5.60
2018-12-21T18:58:01.203Z,4.60
2018-12-21T19:03:09.366Z,3.93
2018-12-21T19:05:37.865Z,3.93
2018-12-21T19:08:09.167Z,3.30
2018-12-21T19:10:37.335Z,3.37
2018-12-21T19:13:07.468Z,2.93
2018-12-21T19:15:37.924Z,3.70
2018-12-21T19:18:07.583Z,3.30
2018-12-21T19:20:40.991Z,3.47
2018-12-21T19:23:10.450Z,3.50
2018-12-21T19:25:37.862Z,3.30
2018-12-21T19:28:05.262Z,3.53
2018-12-21T19:30:32.722Z,3.40
2018-12-21T19:33:00.179Z,4.53
2018-12-21T19:35:29.896Z,3.33
2018-12-21T19:37:56.989Z,4.83
2018-12-21T19:40:24.434Z,3.90
2018-12-21T19:42:51.963Z,3.10
2018-12-21T19:45:19.398Z,3.20
2018-12-21T19:47:46.761Z,3.20
2018-12-21T19:50:14.199Z,2.60
2018-12-21T19:52:41.606Z,3.47
2018-12-21T19:55:16.915Z,3.00
2018-12-21T19:57:44.331Z,2.93
2018-12-21T20:00:11.705Z,2.83
2018-12-21T20:02:39.165Z,2.83
2018-12-21T20:05:06.966Z,3.03
2018-12-21T20:07:34.368Z,3.80
2018-12-21T20:10:01.836Z,2.93
2018-12-21T20:12:29.235Z,3.00
2018-12-21T20:14:56.651Z,3.40
2018-12-21T20:17:24.124Z,3.37
2018-12-21T20:19:51.516Z,2.43
2018-12-21T20:22:18.900Z,3.13
2018-12-21T20:24:46.331Z,3.30
2018-12-21T20:27:14.786Z,3.30
2018-12-21T20:29:42.519Z,2.90
2018-12-21T20:32:09.897Z,3.10
2018-12-21T20:34:37.276Z,3.33
2018-12-21T20:37:04.651Z,2.50
2018-12-21T20:39:32.757Z,3.13
2018-12-21T20:42:00.231Z,3.30
2018-12-21T20:44:27.703Z,2.90
2018-12-21T20:46:55.339Z,3.20
2018-12-21T20:49:22.793Z,4.10
2018-12-21T20:51:50.265Z,3.37
2018-12-21T20:54:17.783Z,2.90
2018-12-21T20:56:46.793Z,2.83
2018-12-21T20:59:16.673Z,2.80
2018-12-21T21:01:44.063Z,2.80
2018-12-21T21:04:11.491Z,3.00
2018-12-21T21:06:38.983Z,2.70
2018-12-21T21:09:07.851Z,2.70
2018-12-21T21:11:35.225Z,2.73
2018-12-21T21:14:02.857Z,3.43
2018-12-21T21:16:30.262Z,2.47
2018-12-21T21:18:57.669Z,2.77
2018-12-21T21:21:25.157Z,3.37
2018-12-21T21:23:52.566Z,2.50
2018-12-21T21:26:19.922Z,2.93
2018-12-21T21:28:47.315Z,2.60
2018-12-21T21:31:14.690Z,2.50
2018-12-21T21:33:42.127Z,2.83
2018-12-21T21:36:09.534Z,2.60
2018-12-21T21:38:36.958Z,2.70
2018-12-21T21:41:04.374Z,2.50
2018-12-21T21:43:31.745Z,2.53
2018-12-21T21:45:59.195Z,2.50
2018-12-21T21:48:26.626Z,4.50
2018-12-21T21:50:54.002Z,3.27
2018-12-21T21:53:21.371Z,2.50
2018-12-21T21:55:48.810Z,2.60
2018-12-21T21:58:16.308Z,2.40
2018-12-21T22:00:43.695Z,2.43
2018-12-21T22:03:11.070Z,2.33
2018-12-21T22:05:38.403Z,2.40
2018-12-21T22:08:05.836Z,2.30
2018-12-21T22:10:33.260Z,2.30
2018-12-21T22:13:00.646Z,1.93
2018-12-21T22:15:28.070Z,2.20
2018-12-21T22:17:55.462Z,1.80
2018-12-21T22:20:22.851Z,2.20
2018-12-21T22:22:50.227Z,2.17
2018-12-21T22:25:17.750Z,1.80
2018-12-21T22:27:48.114Z,2.20
2018-12-21T22:30:14.778Z,2.20
2018-12-21T22:32:42.275Z,2.40
2018-12-21T22:35:09.691Z,2.40
2018-12-21T22:37:37.096Z,2.20
2018-12-21T22:40:04.658Z,2.40
2018-12-21T22:42:32.046Z,1.70
2018-12-21T22:44:59.498Z,1.60
2018-12-21T22:47:26.894Z,1.90
2018-12-21T22:49:54.269Z,1.87
2018-12-21T22:52:21.642Z,1.83
2018-12-21T22:54:49.030Z,2.30
2018-12-21T22:57:16.442Z,1.70
2018-12-21T22:59:43.851Z,1.60
2018-12-21T23:02:11.242Z,1.73
2018-12-21T23:04:38.608Z,1.63
2018-12-21T23:07:06.016Z,1.70
2018-12-21T23:09:33.358Z,1.77
2018-12-21T23:12:00.814Z,1.97
2018-12-21T23:14:28.269Z,1.70
2018-12-21T23:16:55.738Z,1.80
2018-12-21T23:19:23.110Z,1.63
2018-12-21T23:21:50.570Z,1.80
2018-12-21T23:24:18.018Z,1.73
2018-12-21T23:26:45.374Z,2.33
2018-12-21T23:29:12.751Z,2.23
2018-12-21T23:31:40.145Z,1.60
2018-12-21T23:34:07.501Z,1.90
2018-12-21T23:36:34.898Z,7.23
2018-12-21T23:39:02.335Z,4.60
2018-12-21T23:41:29.786Z,2.43
2018-12-21T23:43:57.231Z,2.27
2018-12-21T23:46:24.592Z,3.47
2018-12-21T23:48:51.974Z,79.17
2018-12-21T23:51:19.390Z,35.87
2018-12-21T23:53:46.764Z,35.00
2018-12-21T23:56:14.136Z,95.93
2018-12-21T23:58:41.534Z,69.10
